TimeMST,TemperatureF,Dew PointF,Humidity,Sea Level PressureIn,VisibilityMPH,Wind Direction,Wind SpeedMPH,Gust SpeedMPH,PrecipitationIn,Events,Conditions,WindDirDegrees,DateUTC
12:53 AM,55.0,17.1,23,30.15,10.0,Calm,Calm,-,N/A,,Clear,0,2013-11-07 07:53:00
1:53 AM,55.0,17.1,23,30.15,10.0,Calm,Calm,-,N/A,,Clear,0,2013-11-07 08:53:00
2:53 AM,54.0,18.0,24,30.14,10.0,NW,3.5,-,N/A,,Clear,310,2013-11-07 09:53:00
3:53 AM,53.1,19.9,27,30.14,10.0,Calm,Calm,-,N/A,,Clear,0,2013-11-07 10:53:00
4:53 AM,52.0,19.9,28,30.14,10.0,Calm,Calm,-,N/A,,Clear,0,2013-11-07 11:53:00
5:53 AM,51.1,18.0,27,30.16,10.0,Calm,Calm,-,N/A,,Clear,0,2013-11-07 12:53:00
6:53 AM,52.0,18.0,26,30.17,10.0,Calm,Calm,-,N/A,,Clear,0,2013-11-07 13:53:00
7:53 AM,57.9,19.0,22,30.18,10.0,Calm,Calm,-,N/A,,Clear,0,2013-11-07 14:53:00
8:53 AM,66.0,19.0,17,30.17,10.0,Calm,Calm,-,N/A,,Clear,0,2013-11-07 15:53:00
9:53 AM,72.0,14.0,11,30.17,10.0,ESE,8.1,-,N/A,,Clear,120,2013-11-07 16:53:00
10:53 AM,73.9,12.0,9,30.17,10.0,ENE,6.9,-,N/A,,Clear,60,2013-11-07 17:53:00
11:53 AM,77.0,10.9,8,30.14,10.0,ESE,9.2,-,N/A,,Clear,110,2013-11-07 18:53:00
12:53 PM,79.0,10.9,8,30.09,10.0,East,6.9,-,N/A,,Clear,90,2013-11-07 19:53:00
1:53 PM,80.1,10.0,7,30.06,10.0,Variable,5.8,-,N/A,,Clear,0,2013-11-07 20:53:00
2:53 PM,81.0,8.1,6,30.03,10.0,ESE,4.6,-,N/A,,Clear,110,2013-11-07 21:53:00
3:53 PM,82.0,8.1,6,30.01,10.0,Variable,4.6,-,N/A,,Clear,0,2013-11-07 22:53:00
4:53 PM,81.0,8.1,6,30.01,10.0,Calm,Calm,-,N/A,,Clear,0,2013-11-07 23:53:00
5:53 PM,73.9,14.0,10,30.01,10.0,Calm,Calm,-,N/A,,Clear,0,2013-11-08 00:53:00
6:53 PM,72.0,14.0,11,30.02,10.0,North,3.5,-,N/A,,Clear,10,2013-11-08 01:53:00
7:53 PM,72.0,9.0,9,30.01,10.0,NE,4.6,-,N/A,,Clear,40,2013-11-08 02:53:00
8:53 PM,66.0,14.0,13,30.01,10.0,Calm,Calm,-,N/A,,Clear,0,2013-11-08 03:53:00
9:53 PM,62.1,19.9,20,30.02,10.0,Calm,Calm,-,N/A,,Clear,0,2013-11-08 04:53:00
10:53 PM,60.1,23.0,24,30.02,10.0,Calm,Calm,-,N/A,,Clear,0,2013-11-08 05:53:00
11:53 PM,59.0,27.0,29,30.01,10.0,Calm,Calm,-,N/A,,Clear,0,2013-11-08 06:53:00